Aviation Digital Data Service (ADDS)

Output produced by METARs form (0723 UTC 18 September 2021)
found at http://www.aviationweather.gov/metar/data/
 
LHBP 180700Z 30013KT 9999 FEW020 SCT090 17/11 Q1013 NOSIG
LHBP 180630Z 27008KT 240V300 9999 FEW016 SCT090 15/11 Q1013 NOSIG
LHBP 180600Z 26003KT 220V290 CAVOK 14/11 Q1013 NOSIG
LHBP 180530Z 23003KT 200V270 CAVOK 13/11 Q1013 NOSIG
LHBP 180500Z 28007KT CAVOK 13/10 Q1012 NOSIG
LHBP 180430Z 31006KT CAVOK 11/10 Q1012 NOSIG
LHBP 180400Z 31008KT CAVOK 12/10 Q1012 NOSIG
LHBP 180330Z 29009KT CAVOK 13/10 Q1012 NOSIG
LHBP 180300Z 31006KT CAVOK 12/10 Q1012 NOSIG
LHBP 180230Z 29006KT CAVOK 12/10 Q1012 NOSIG
LHBP 180200Z 26007KT CAVOK 13/10 Q1012 NOSIG
LHBP 180130Z 28006KT CAVOK 13/10 Q1012 NOSIG
TAF LHBP 180515Z 1806/1906 29008KT CAVOK 
     BECMG 1807/1809 30015G25KT SCT040 
     TEMPO 1810/1818 SHRA SCT030TCU BKN070 
     BECMG 1818/1821 27006KT CAVOK